Time;durP1;ratioP1;P1;durP2;ratioP2;P2;SDS_P1;SDS_P2;PMS_P1;PMS_P2;Temp;Humidity;BMP_temperature;BMP_pressure;BME280_temperature;BME280_humidity;BME280_pressure;Samples;Min_cycle;Max_cycle;Signal;HPM_P1;HPM_P2
2022/06/13 00:00:11;;;;;;;0.60;0.60;;;12.00;99.90;;;;;;5137159;27;20542;-72
2022/06/13 00:02:37;;;;;;;0.55;0.55;;;11.90;99.90;;;;;;5155386;27;21313;-71
2022/06/13 00:05:05;;;;;;;0.50;0.50;;;11.90;99.90;;;;;;5137069;27;20281;-71
2022/06/13 00:07:31;;;;;;;0.85;0.85;;;11.80;99.90;;;;;;5151195;27;20210;-71
2022/06/13 00:09:57;;;;;;;0.50;0.50;;;11.70;99.90;;;;;;5116270;27;20186;-71
2022/06/13 00:12:24;;;;;;;0.50;0.50;;;11.70;99.90;;;;;;5115983;27;20195;-71
2022/06/13 00:14:50;;;;;;;0.70;0.70;;;11.60;99.90;;;;;;5134775;27;20191;-71
2022/06/13 00:17:15;;;;;;;0.40;0.40;;;11.60;99.90;;;;;;5134910;27;20211;-72
2022/06/13 00:19:41;;;;;;;0.80;0.80;;;11.60;99.90;;;;;;5116005;27;20191;-72
2022/06/13 00:22:07;;;;;;;2.75;1.02;;;11.60;99.90;;;;;;5134433;27;20226;-71
2022/06/13 00:24:33;;;;;;;0.80;0.77;;;11.60;99.90;;;;;;5115991;27;20218;-72
2022/06/13 00:27:00;;;;;;;1.17;1.08;;;11.70;99.90;;;;;;5134418;27;20286;-71
2022/06/13 00:29:26;;;;;;;4.35;1.50;;;11.70;99.90;;;;;;5134291;27;20190;-72
2022/06/13 00:31:52;;;;;;;1.58;1.48;;;11.60;99.90;;;;;;5135761;27;20202;-73
2022/06/13 00:34:17;;;;;;;0.50;0.50;;;11.60;99.90;;;;;;5154972;27;20193;-72
2022/06/13 00:36:43;;;;;;;0.90;0.82;;;11.60;99.90;;;;;;5136316;27;20213;-72
2022/06/13 00:39:09;;;;;;;0.50;0.50;;;11.60;99.90;;;;;;5154996;27;20557;-73
2022/06/13 00:41:38;;;;;;;0.85;0.85;;;11.50;99.90;;;;;;5153659;27;20190;-73
2022/06/13 00:44:32;;;;;;;0.50;0.50;;;11.50;99.90;;;;;;5136235;27;20198;-72
2022/06/13 00:46:57;;;;;;;1.02;1.00;;;11.40;99.90;;;;;;5154744;27;20194;-72
2022/06/13 00:49:31;;;;;;;0.70;0.70;;;11.30;99.90;;;;;;5144573;27;20194;-72
2022/06/13 00:52:25;;;;;;;0.68;0.68;;;11.30;99.90;;;;;;5112028;28;20272;-72
2022/06/13 00:54:53;;;;;;;0.60;0.60;;;11.30;99.90;;;;;;5133927;27;20202;-72
2022/06/13 00:57:23;;;;;;;2.65;1.10;;;11.30;99.90;;;;;;5133662;27;20657;-72
2022/06/13 00:59:54;;;;;;;0.68;0.68;;;11.20;99.90;;;;;;5133825;27;20661;-72
2022/06/13 01:02:21;;;;;;;0.80;0.80;;;11.20;99.90;;;;;;5132081;27;20210;-72
2022/06/13 01:04:51;;;;;;;1.85;1.52;;;11.00;99.90;;;;;;5120950;27;20608;-72
2022/06/13 01:07:17;;;;;;;0.50;0.50;;;11.10;99.90;;;;;;5112999;28;20223;-72
2022/06/13 01:12:29;;;;;;;3.60;1.40;;;10.90;99.90;;;;;;5113041;28;20201;-72
2022/06/13 01:15:07;;;;;;;0.70;0.70;;;10.80;99.90;;;;;;5111675;28;20198;-72
2022/06/13 01:18:10;;;;;;;0.60;0.60;;;10.70;99.90;;;;;;5112634;28;20672;-72
2022/06/13 01:20:44;;;;;;;1.30;1.02;;;10.60;99.90;;;;;;5111231;28;20658;-73
2022/06/13 01:23:21;;;;;;;1.10;0.95;;;10.50;99.90;;;;;;5112709;28;20186;-72
2022/06/13 01:26:15;;;;;;;0.65;0.65;;;10.40;99.90;;;;;;5111489;28;20729;-72
2022/06/13 01:28:59;;;;;;;0.60;0.60;;;10.30;99.90;;;;;;5132965;27;20203;-72
2022/06/13 01:31:43;;;;;;;0.60;0.60;;;10.20;99.90;;;;;;5132843;27;20195;-72
2022/06/13 01:34:30;;;;;;;4.57;1.77;;;10.10;99.90;;;;;;5131871;27;20665;-72
2022/06/13 01:37:17;;;;;;;0.60;0.60;;;10.00;99.90;;;;;;5133020;27;20645;-72
2022/06/13 01:40:09;;;;;;;0.50;0.50;;;10.00;99.90;;;;;;5131619;27;20200;-72
2022/06/13 01:43:13;;;;;;;0.88;0.88;;;9.90;99.90;;;;;;5132617;27;20197;-72
2022/06/13 01:45:50;;;;;;;0.55;0.55;;;9.90;99.90;;;;;;5112923;27;20768;-72
2022/06/13 01:48:36;;;;;;;0.50;0.50;;;9.90;99.90;;;;;;5130924;27;20210;-72
2022/06/13 01:51:24;;;;;;;0.93;0.93;;;9.90;99.90;;;;;;5141196;27;20308;-72
2022/06/13 01:54:05;;;;;;;0.60;0.60;;;9.90;99.90;;;;;;5153718;27;20214;-73
2022/06/13 01:56:44;;;;;;;0.77;0.68;;;9.90;99.90;;;;;;5134707;27;20620;-72
2022/06/13 01:59:22;;;;;;;0.50;0.50;;;9.90;99.90;;;;;;5153406;27;20208;-73
2022/06/13 02:01:55;;;;;;;0.60;0.60;;;9.90;99.90;;;;;;5147132;27;20562;-72
2022/06/13 02:04:31;;;;;;;1.05;0.82;;;9.90;99.90;;;;;;5134511;27;20206;-72
2022/06/13 02:07:07;;;;;;;0.60;0.60;;;9.80;99.90;;;;;;5153297;27;20744;-73
2022/06/13 02:09:44;;;;;;;0.70;0.70;;;9.80;99.90;;;;;;5153042;27;20648;-73
2022/06/13 02:12:12;;;;;;;0.82;0.82;;;9.70;99.90;;;;;;5153194;27;20194;-72
2022/06/13 02:14:45;;;;;;;0.70;0.70;;;9.70;99.90;;;;;;5153403;27;20208;-72
2022/06/13 02:17:16;;;;;;;0.60;0.60;;;9.80;99.90;;;;;;5153742;27;20197;-72
2022/06/13 02:19:52;;;;;;;0.50;0.50;;;9.80;99.90;;;;;;5134445;27;20193;-72
2022/06/13 02:22:39;;;;;;;0.50;0.50;;;9.80;99.90;;;;;;5152667;27;20262;-72
2022/06/13 02:25:08;;;;;;;0.50;0.50;;;9.80;99.90;;;;;;5153019;27;20189;-73
2022/06/13 02:27:36;;;;;;;0.50;0.50;;;9.80;99.90;;;;;;5152730;27;20201;-72
2022/06/13 02:30:17;;;;;;;1.15;0.93;;;9.90;99.90;;;;;;5134264;27;20239;-72
2022/06/13 02:33:12;;;;;;;0.55;0.55;;;9.90;99.90;;;;;;5153078;27;20605;-72
2022/06/13 02:35:56;;;;;;;0.70;0.70;;;9.90;99.90;;;;;;5133512;27;20241;-72
2022/06/13 02:38:33;;;;;;;0.60;0.60;;;10.00;99.90;;;;;;5152773;27;20189;-72
2022/06/13 02:41:05;;;;;;;0.50;0.50;;;10.10;99.90;;;;;;5152901;27;20224;-72
2022/06/13 02:44:03;;;;;;;1.17;1.17;;;10.00;99.90;;;;;;5152563;27;20190;-72
2022/06/13 02:46:56;;;;;;;0.60;0.60;;;10.00;99.90;;;;;;5138901;27;20620;-72
2022/06/13 02:49:42;;;;;;;3.10;1.23;;;10.10;99.90;;;;;;5152699;27;20263;-72
2022/06/13 02:52:20;;;;;;;4.88;1.67;;;10.10;99.90;;;;;;5152588;27;20697;-73
2022/06/13 02:54:56;;;;;;;0.60;0.60;;;10.30;99.90;;;;;;5152731;27;20185;-72
2022/06/13 02:57:29;;;;;;;0.88;0.75;;;10.40;99.90;;;;;;5152413;27;20198;-72
2022/06/13 03:00:13;;;;;;;0.50;0.50;;;10.50;99.90;;;;;;5152627;27;20557;-72
2022/06/13 03:02:51;;;;;;;0.95;0.95;;;10.80;99.90;;;;;;5143155;27;20236;-73
2022/06/13 03:05:35;;;;;;;0.98;0.88;;;10.90;99.90;;;;;;5116210;27;20560;-72
2022/06/13 03:08:16;;;;;;;0.50;0.50;;;11.10;99.90;;;;;;5135854;27;20334;-72
2022/06/13 03:11:00;;;;;;;0.50;0.50;;;11.20;99.90;;;;;;5117273;27;20190;-72
2022/06/13 03:13:38;;;;;;;0.50;0.50;;;11.40;99.90;;;;;;5135846;27;20199;-73
2022/06/13 03:16:19;;;;;;;0.77;0.77;;;11.50;99.90;;;;;;5135847;27;20182;-72
2022/06/13 03:18:50;;;;;;;2.63;1.20;;;11.50;99.90;;;;;;5121442;27;20612;-72
2022/06/13 03:21:26;;;;;;;0.80;0.70;;;11.50;99.90;;;;;;5156568;27;20194;-73
2022/06/13 03:24:02;;;;;;;1.45;1.35;;;11.60;99.90;;;;;;5156480;27;20186;-72
2022/06/13 03:26:33;;;;;;;0.60;0.60;;;11.70;99.90;;;;;;5137669;27;20246;-73
2022/06/13 03:29:05;;;;;;;0.40;0.40;;;11.70;99.90;;;;;;5156365;27;20210;-73
2022/06/13 03:32:06;;;;;;;0.60;0.60;;;11.80;99.90;;;;;;5137599;27;20190;-72
2022/06/13 03:34:40;;;;;;;0.50;0.50;;;11.70;99.90;;;;;;5109703;27;20627;-73
2022/06/13 03:37:21;;;;;;;4.13;2.25;;;11.70;99.90;;;;;;5137661;27;20660;-73
2022/06/13 03:40:02;;;;;;;0.50;0.50;;;11.70;99.90;;;;;;5137565;27;20254;-73
2022/06/13 03:42:45;;;;;;;0.70;0.70;;;11.60;99.90;;;;;;5126246;27;20195;-72
2022/06/13 03:45:31;;;;;;;0.68;0.68;;;11.60;99.90;;;;;;5135407;27;20191;-73
2022/06/13 03:48:03;;;;;;;0.55;0.55;;;11.50;99.90;;;;;;5135265;27;20213;-72
2022/06/13 03:50:34;;;;;;;7.22;0.98;;;11.50;99.90;;;;;;5134697;27;20226;-72
2022/06/13 03:53:10;;;;;;;0.65;0.65;;;11.50;99.90;;;;;;5124761;27;20182;-72
2022/06/13 03:56:00;;;;;;;0.50;0.50;;;11.60;99.90;;;;;;5155995;27;20186;-72
2022/06/13 03:58:44;;;;;;;0.50;0.50;;;11.70;99.90;;;;;;5155587;27;20660;-73
2022/06/13 04:01:30;;;;;;;1.30;0.70;;;11.80;99.90;;;;;;5155615;27;20194;-72
2022/06/13 04:03:56;;;;;;;0.50;0.50;;;11.90;99.90;;;;;;5155693;27;20249;-72
2022/06/13 04:06:48;;;;;;;0.50;0.50;;;11.90;99.90;;;;;;5155365;27;20251;-71
2022/06/13 04:09:36;;;;;;;0.80;0.80;;;12.00;99.90;;;;;;5152475;27;20675;-71
2022/06/13 04:12:26;;;;;;;0.65;0.65;;;12.10;99.90;;;;;;5155420;27;20182;-72
2022/06/13 04:15:30;;;;;;;0.50;0.50;;;12.10;99.90;;;;;;5155086;27;20201;-72
2022/06/13 04:18:08;;;;;;;0.50;0.50;;;12.30;99.90;;;;;;5154411;27;20213;-71
2022/06/13 04:20:52;;;;;;;1.50;1.40;;;12.40;99.90;;;;;;5155230;27;20259;-72
2022/06/13 04:23:47;;;;;;;0.70;0.70;;;12.40;99.90;;;;;;5155134;27;20190;-72
2022/06/13 04:26:26;;;;;;;1.00;0.70;;;12.40;99.90;;;;;;5136605;27;20246;-72
2022/06/13 04:29:00;;;;;;;0.40;0.40;;;12.40;99.90;;;;;;5155237;27;20680;-72
2022/06/13 04:31:30;;;;;;;0.47;0.47;;;12.50;99.90;;;;;;5155044;27;20197;-72
2022/06/13 04:34:18;;;;;;;0.50;0.50;;;12.40;99.90;;;;;;5136579;27;20571;-72
2022/06/13 04:36:46;;;;;;;0.40;0.40;;;12.40;99.90;;;;;;5155051;27;20728;-73
2022/06/13 04:39:15;;;;;;;0.65;0.65;;;12.40;99.90;;;;;;5139774;27;20191;-71
2022/06/13 04:41:45;;;;;;;0.50;0.50;;;12.30;99.90;;;;;;5134055;27;20224;-72
2022/06/13 04:44:20;;;;;;;0.50;0.50;;;12.20;99.90;;;;;;5134247;27;20233;-73
2022/06/13 04:46:47;;;;;;;0.40;0.40;;;12.10;99.90;;;;;;5134195;27;20269;-73
2022/06/13 04:49:39;;;;;;;0.57;0.57;;;12.10;99.90;;;;;;5141766;27;20241;-71
2022/06/13 04:52:13;;;;;;;0.57;0.57;;;12.20;99.90;;;;;;5154564;27;20221;-72
2022/06/13 04:55:02;;;;;;;0.50;0.50;;;12.30;99.90;;;;;;5154598;27;20229;-75
2022/06/13 04:57:29;;;;;;;0.63;0.63;;;12.40;99.90;;;;;;5135567;27;20673;-72
2022/06/13 04:59:56;;;;;;;0.80;0.80;;;12.60;99.90;;;;;;5136032;27;20297;-72
2022/06/13 05:02:32;;;;;;;0.55;0.55;;;12.70;99.90;;;;;;5135817;27;20198;-72
2022/06/13 05:04:58;;;;;;;0.50;0.50;;;12.90;99.90;;;;;;5154517;27;20193;-72
2022/06/13 05:07:24;;;;;;;0.65;0.65;;;13.00;99.90;;;;;;5154189;27;20668;-72
2022/06/13 05:10:00;;;;;;;0.52;0.52;;;13.10;99.90;;;;;;5154561;27;20556;-72
2022/06/13 05:12:31;;;;;;;0.50;0.50;;;13.00;99.90;;;;;;5135257;27;20208;-72
2022/06/13 05:15:04;;;;;;;0.50;0.50;;;12.90;99.90;;;;;;5135768;27;20668;-71
2022/06/13 05:17:54;;;;;;;0.90;0.90;;;12.80;99.90;;;;;;5154104;27;20189;-71
2022/06/13 05:20:32;;;;;;;0.52;0.52;;;12.70;99.90;;;;;;5153922;27;20198;-72
2022/06/13 05:23:25;;;;;;;0.40;0.40;;;12.70;99.90;;;;;;5154161;27;20712;-71
2022/06/13 05:25:58;;;;;;;0.60;0.60;;;12.70;99.90;;;;;;5154071;27;20265;-71
2022/06/13 05:28:30;;;;;;;0.40;0.40;;;12.80;99.90;;;;;;5153234;27;20225;-73
2022/06/13 05:30:59;;;;;;;0.50;0.50;;;12.80;99.90;;;;;;5154155;27;20186;-71
2022/06/13 05:33:32;;;;;;;0.50;0.50;;;13.10;99.90;;;;;;5153826;27;20186;-73
2022/06/13 05:36:02;;;;;;;0.60;0.60;;;13.40;99.90;;;;;;5153858;27;20197;-71
2022/06/13 05:38:38;;;;;;;0.43;0.43;;;13.70;99.90;;;;;;5153487;27;20202;-72
2022/06/13 05:41:04;;;;;;;0.60;0.60;;;14.00;99.90;;;;;;5153774;27;20285;-72
2022/06/13 05:43:30;;;;;;;5.05;1.00;;;14.20;99.90;;;;;;5153749;27;20277;-72
2022/06/13 05:45:57;;;;;;;0.57;0.57;;;14.50;99.90;;;;;;5153609;27;20202;-72
2022/06/13 05:48:23;;;;;;;0.63;0.60;;;14.70;99.90;;;;;;5151967;27;20301;-73
2022/06/13 05:50:50;;;;;;;0.77;0.77;;;15.00;99.90;;;;;;5132880;27;20700;-72
2022/06/13 05:53:20;;;;;;;7.10;2.13;;;15.20;99.90;;;;;;5132875;27;20193;-73
2022/06/13 05:55:47;;;;;;;0.30;0.30;;;15.40;99.90;;;;;;5132891;27;20190;-73
2022/06/13 05:58:16;;;;;;;0.30;0.30;;;15.60;99.90;;;;;;5132718;27;20705;-73
2022/06/13 06:00:48;;;;;;;0.40;0.40;;;15.90;99.90;;;;;;5113941;27;20197;-73
2022/06/13 06:03:13;;;;;;;0.60;0.60;;;16.10;99.90;;;;;;5132801;27;20715;-73
2022/06/13 06:05:40;;;;;;;0.70;0.70;;;16.00;99.90;;;;;;5114113;27;20297;-72
2022/06/13 06:08:17;;;;;;;0.47;0.47;;;16.20;99.90;;;;;;5141820;27;20284;-73
2022/06/13 06:10:44;;;;;;;0.40;0.40;;;16.50;99.90;;;;;;5153250;27;20716;-73
2022/06/13 06:13:14;;;;;;;0.20;0.20;;;16.60;99.90;;;;;;5153288;27;20193;-73
2022/06/13 06:15:41;;;;;;;0.30;0.30;;;16.70;99.90;;;;;;5153425;27;20274;-73
2022/06/13 06:18:07;;;;;;;0.40;0.40;;;16.50;99.90;;;;;;5153195;27;20222;-73
2022/06/13 06:20:33;;;;;;;0.30;0.30;;;16.10;99.90;;;;;;5134370;27;20244;-73
2022/06/13 06:22:58;;;;;;;0.40;0.40;;;15.90;99.90;;;;;;5153291;27;20198;-72
2022/06/13 06:25:24;;;;;;;10.70;0.90;;;15.70;99.90;;;;;;5152998;27;20193;-70
2022/06/13 06:27:50;;;;;;;1.05;0.68;;;15.50;99.90;;;;;;5153097;27;20210;-72
2022/06/13 06:30:18;;;;;;;0.35;0.35;;;15.70;99.90;;;;;;5152977;27;20181;-72
2022/06/13 06:32:46;;;;;;;0.30;0.30;;;15.90;99.90;;;;;;5152225;27;20237;-72
2022/06/13 06:35:13;;;;;;;0.30;0.30;;;16.20;99.90;;;;;;5153044;27;20709;-73
2022/06/13 06:37:40;;;;;;;0.28;0.28;;;16.50;99.90;;;;;;5134383;27;20198;-73
2022/06/13 06:40:07;;;;;;;1.75;1.10;;;16.70;99.90;;;;;;5136724;27;20661;-73
2022/06/13 06:42:33;;;;;;;0.30;0.30;;;16.70;99.90;;;;;;5156696;27;20289;-72
2022/06/13 06:44:59;;;;;;;0.68;0.68;;;16.80;99.90;;;;;;5157275;27;20680;-73
2022/06/13 06:47:25;;;;;;;0.30;0.30;;;16.90;99.90;;;;;;5156936;27;20205;-73
2022/06/13 06:49:51;;;;;;;0.63;0.63;;;17.10;99.90;;;;;;5143217;27;20199;-73
2022/06/13 06:52:16;;;;;;;0.30;0.30;;;17.10;99.90;;;;;;5136025;27;20257;-73
2022/06/13 07:00:11;;;;;;;0.30;0.30;;;18.40;99.90;;;;;;5136781;27;20247;-74
2022/06/13 07:02:37;;;;;;;0.40;0.40;;;19.00;99.90;;;;;;5118242;27;20194;-75
2022/06/13 07:05:06;;;;;;;1.20;0.63;;;19.00;99.90;;;;;;5135230;27;20209;-74
2022/06/13 07:07:31;;;;;;;0.30;0.30;;;19.00;99.90;;;;;;5142647;27;20202;-75
2022/06/13 07:09:57;;;;;;;0.20;0.20;;;19.00;99.90;;;;;;5160278;27;20212;-77
2022/06/13 07:12:24;;;;;;;0.30;0.30;;;19.20;99.90;;;;;;5158567;27;20581;-75
2022/06/13 07:14:50;;;;;;;1.80;0.82;;;19.50;99.90;;;;;;5139775;27;20201;-74
2022/06/13 07:17:16;;;;;;;0.20;0.20;;;19.70;99.90;;;;;;5139588;27;20186;-74
2022/06/13 07:19:45;;;;;;;0.50;0.50;;;19.80;99.90;;;;;;5157948;27;20186;-75
2022/06/13 07:22:19;;;;;;;0.50;0.50;;;19.50;99.90;;;;;;5157355;27;20196;-76
2022/06/13 07:24:46;;;;;;;0.20;0.20;;;19.10;99.90;;;;;;5157512;27;20179;-75
2022/06/13 07:27:13;;;;;;;0.30;0.30;;;19.30;99.90;;;;;;5157658;27;20648;-75
2022/06/13 07:29:40;;;;;;;0.20;0.20;;;19.60;99.90;;;;;;5140084;27;20190;-74
2022/06/13 07:32:12;;;;;;;0.20;0.20;;;20.00;99.90;;;;;;5158596;27;20185;-74
2022/06/13 07:34:39;;;;;;;4.68;1.10;;;19.90;99.90;;;;;;5159391;27;20629;-74
2022/06/13 07:37:10;;;;;;;0.20;0.20;;;20.40;99.90;;;;;;5142293;27;20191;-72
2022/06/13 07:39:35;;;;;;;0.20;0.20;;;20.60;99.90;;;;;;5142271;27;20558;-75
2022/06/13 07:42:04;;;;;;;0.30;0.30;;;20.60;99.90;;;;;;5141413;27;20194;-74
2022/06/13 07:44:34;;;;;;;0.25;0.25;;;20.30;99.90;;;;;;5160799;27;20186;-75
2022/06/13 07:47:00;;;;;;;0.20;0.20;;;20.30;99.90;;;;;;5161540;27;20183;-75
2022/06/13 07:49:26;;;;;;;0.32;0.32;;;20.70;99.90;;;;;;5124223;27;20286;-75
2022/06/13 07:51:52;;;;;;;1.08;0.47;;;20.70;99.90;;;;;;5141291;27;20222;-75
2022/06/13 07:54:18;;;;;;;0.20;0.20;;;20.80;99.90;;;;;;5123321;27;20201;-75
2022/06/13 07:56:44;;;;;;;0.20;0.20;;;20.20;99.90;;;;;;5140920;27;20194;-77
2022/06/13 07:59:25;;;;;;;0.30;0.30;;;20.00;99.90;;;;;;5141256;27;20197;-75
2022/06/13 08:01:50;;;;;;;0.20;0.20;;;20.20;99.90;;;;;;5160412;27;20210;-75
2022/06/13 08:04:17;;;;;;;1.60;0.22;;;20.60;99.90;;;;;;5158943;27;20194;-75
2022/06/13 08:06:42;;;;;;;0.20;0.20;;;21.10;99.90;;;;;;5157569;27;20303;-74
2022/06/13 08:09:11;;;;;;;0.17;0.17;;;20.80;99.90;;;;;;5155846;27;20685;-74
2022/06/13 08:11:50;;;;;;;0.20;0.20;;;20.30;99.90;;;;;;5155749;27;20196;-73
2022/06/13 08:14:16;;;;;;;0.22;0.22;;;20.20;99.90;;;;;;5155708;27;20190;-72
2022/06/13 08:16:43;;;;;;;0.20;0.20;;;20.60;99.90;;;;;;5155934;27;20299;-75
2022/06/13 08:19:10;;;;;;;0.20;0.20;;;20.90;99.90;;;;;;5158215;27;20186;-75
2022/06/13 08:21:37;;;;;;;0.25;0.25;;;21.20;99.90;;;;;;5137190;27;20190;-75
2022/06/13 08:24:05;;;;;;;0.20;0.20;;;21.60;99.90;;;;;;5156289;27;20187;-75
2022/06/13 08:26:30;;;;;;;0.13;0.13;;;22.00;99.90;;;;;;5155627;27;20269;-77
2022/06/13 08:28:56;;;;;;;0.20;0.20;;;22.60;99.90;;;;;;5137570;27;20759;-77
2022/06/13 08:31:22;;;;;;;0.20;0.20;;;22.10;99.90;;;;;;5155823;27;20194;-74
2022/06/13 08:33:49;;;;;;;0.20;0.20;;;22.30;99.90;;;;;;5136955;27;20196;-75
2022/06/13 08:36:15;;;;;;;0.40;0.40;;;21.80;99.90;;;;;;5155619;27;20186;-75
2022/06/13 08:38:41;;;;;;;0.20;0.20;;;21.30;99.90;;;;;;5155464;27;20217;-75
2022/06/13 08:41:42;;;;;;;0.20;0.20;;;20.60;99.90;;;;;;5136862;27;20656;-76
2022/06/13 08:44:33;;;;;;;0.20;0.20;;;20.70;99.90;;;;;;5151120;27;20262;-73
2022/06/13 08:47:16;;;;;;;0.30;0.28;;;21.50;99.90;;;;;;5155292;27;20208;-75
2022/06/13 08:50:04;;;;;;;0.20;0.20;;;21.70;99.90;;;;;;5154821;27;20194;-74
2022/06/13 08:52:35;;;;;;;0.20;0.20;;;21.90;99.90;;;;;;5154857;27;20209;-75
2022/06/13 08:55:11;;;;;;;0.30;0.30;;;21.60;99.90;;;;;;5155242;27;20197;-74
2022/06/13 08:57:41;;;;;;;0.55;0.40;;;21.30;99.90;;;;;;5154599;27;20206;-75
2022/06/13 09:00:15;;;;;;;1.00;0.40;;;21.60;99.90;;;;;;5154717;27;20202;-74
2022/06/13 09:02:41;;;;;;;0.43;0.43;;;21.50;99.90;;;;;;5154245;27;20194;-75
2022/06/13 09:05:45;;;;;;;0.20;0.20;;;21.40;99.90;;;;;;5154779;27;20242;-75
2022/06/13 09:08:24;;;;;;;0.20;0.20;;;22.20;99.90;;;;;;5135943;27;20210;-75
2022/06/13 09:11:00;;;;;;;1.35;1.05;;;22.80;99.90;;;;;;5154469;27;20182;-74
2022/06/13 09:13:35;;;;;;;0.20;0.20;;;22.10;97.50;;;;;;5154280;27;20225;-72
2022/06/13 09:16:12;;;;;;;0.17;0.17;;;22.20;99.60;;;;;;5135649;27;20194;-74
2022/06/13 09:18:53;;;;;;;0.20;0.20;;;22.60;98.10;;;;;;5154040;27;20756;-73
2022/06/13 09:21:28;;;;;;;0.20;0.20;;;22.90;97.40;;;;;;5154023;27;20268;-73
2022/06/13 09:24:02;;;;;;;0.30;0.30;;;23.20;95.40;;;;;;5154386;27;20194;-75
2022/06/13 09:26:51;;;;;;;0.20;0.20;;;22.50;95.00;;;;;;5154176;27;20197;-75
2022/06/13 09:29:38;;;;;;;0.28;0.28;;;21.60;97.10;;;;;;5154276;27;20198;-74
2022/06/13 09:32:07;;;;;;;0.68;0.43;;;22.30;94.80;;;;;;5154022;27;20221;-75
2022/06/13 09:34:43;;;;;;;0.30;0.30;;;22.60;97.50;;;;;;5154054;27;20235;-74
2022/06/13 09:37:33;;;;;;;0.10;0.10;;;22.90;95.70;;;;;;5154053;27;20182;-74
2022/06/13 09:39:59;;;;;;;0.13;0.13;;;23.10;94.40;;;;;;5135471;27;20193;-75
2022/06/13 09:42:51;;;;;;;0.20;0.20;;;22.90;94.10;;;;;;5153505;27;20198;-74
2022/06/13 09:45:29;;;;;;;0.10;0.10;;;22.80;93.50;;;;;;5135197;27;20186;-74
2022/06/13 09:48:22;;;;;;;0.20;0.20;;;23.10;93.00;;;;;;5154601;27;20212;-74
2022/06/13 09:51:14;;;;;;;0.10;0.10;;;24.00;92.70;;;;;;5110888;27;20223;-73
2022/06/13 09:53:58;;;;;;;0.20;0.20;;;24.20;90.20;;;;;;5128059;27;20202;-74
2022/06/13 09:56:39;;;;;;;0.10;0.10;;;23.40;91.10;;;;;;5153141;27;20190;-74
2022/06/13 09:59:13;;;;;;;1.90;1.27;;;22.90;92.20;;;;;;5134879;27;20204;-73
2022/06/13 10:01:52;;;;;;;0.20;0.20;;;23.10;94.30;;;;;;5153571;27;20197;-74
2022/06/13 10:04:36;;;;;;;0.10;0.10;;;23.80;90.80;;;;;;5153243;27;20197;-75
2022/06/13 10:07:10;;;;;;;0.10;0.10;;;24.50;91.90;;;;;;5153313;27;20197;-75
2022/06/13 10:10:13;;;;;;;0.30;0.30;;;25.00;86.80;;;;;;5152682;27;20198;-75
2022/06/13 10:12:48;;;;;;;0.10;0.10;;;24.60;88.20;;;;;;5153064;27;20250;-75
2022/06/13 10:15:29;;;;;;;0.20;0.20;;;25.20;85.40;;;;;;5134603;27;20190;-75
2022/06/13 10:18:00;;;;;;;0.10;0.10;;;25.30;85.60;;;;;;5153263;27;20280;-74
2022/06/13 10:20:48;;;;;;;0.17;0.15;;;25.60;81.40;;;;;;5134337;27;20334;-75
2022/06/13 10:23:32;;;;;;;0.10;0.10;;;25.40;81.60;;;;;;5153210;27;20182;-73
2022/06/13 10:26:15;;;;;;;0.10;0.10;;;25.20;83.10;;;;;;5134618;27;20222;-73
2022/06/13 10:28:50;;;;;;;0.10;0.10;;;25.80;79.90;;;;;;5153101;27;20652;-75
2022/06/13 10:31:27;;;;;;;0.15;0.15;;;25.60;76.70;;;;;;5152726;27;20190;-73
2022/06/13 10:33:59;;;;;;;0.28;0.28;;;24.60;83.10;;;;;;5152946;27;20648;-72
2022/06/13 10:36:54;;;;;;;0.10;0.10;;;23.90;86.40;;;;;;5152617;27;20250;-74
2022/06/13 10:39:24;;;;;;;0.20;0.20;;;23.70;87.30;;;;;;5152668;27;20197;-74
2022/06/13 10:41:54;;;;;;;0.10;0.10;;;23.90;81.90;;;;;;5134167;27;20193;-73
2022/06/13 10:44:21;;;;;;;0.20;0.20;;;24.30;78.60;;;;;;5152576;27;20737;-74
2022/06/13 10:46:53;;;;;;;0.25;0.20;;;24.50;78.80;;;;;;5152819;27;20197;-73
2022/06/13 10:49:33;;;;;;;0.10;0.10;;;24.50;78.10;;;;;;5133525;27;20552;-74
2022/06/13 10:52:05;;;;;;;0.10;0.10;;;24.10;83.80;;;;;;5152660;27;20714;-74
2022/06/13 10:54:44;;;;;;;0.10;0.10;;;24.50;80.10;;;;;;5131780;28;20263;-73
2022/06/13 10:57:17;;;;;;;0.10;0.10;;;24.20;79.00;;;;;;5132098;28;20676;-73
2022/06/13 10:59:43;;;;;;;0.43;0.20;;;24.40;78.10;;;;;;5132077;28;20195;-73
2022/06/13 11:02:17;;;;;;;0.10;0.10;;;23.70;79.60;;;;;;5131942;28;20191;-74
2022/06/13 11:04:43;;;;;;;0.10;0.10;;;22.90;80.50;;;;;;5132006;28;20197;-73
2022/06/13 11:07:18;;;;;;;0.25;0.25;;;22.70;85.50;;;;;;5132011;28;20717;-74
2022/06/13 11:09:55;;;;;;;0.10;0.10;;;23.00;83.30;;;;;;5113482;28;20206;-75
2022/06/13 11:12:27;;;;;;;0.10;0.10;;;23.50;78.10;;;;;;5113594;28;20436;-75
2022/06/13 11:23:46;;;;;;;0.10;0.10;;;25.10;79.80;;;;;;5144691;27;20205;-74
2022/06/13 11:28:58;;;;;;;0.10;0.10;;;24.80;77.80;;;;;;5156423;27;20262;-75
2022/06/13 11:31:26;;;;;;;0.20;0.20;;;24.00;79.30;;;;;;5156138;27;20554;-76
2022/06/13 11:33:53;;;;;;;0.20;0.20;;;23.10;79.70;;;;;;5137867;27;20264;-75
2022/06/13 11:36:25;;;;;;;0.10;0.10;;;23.10;81.20;;;;;;5137473;27;20194;-76
2022/06/13 11:38:56;;;;;;;0.20;0.20;;;23.90;87.00;;;;;;5137817;27;20205;-76
2022/06/13 11:41:36;;;;;;;0.10;0.10;;;24.00;79.80;;;;;;5137197;27;20228;-76
2022/06/13 11:44:19;;;;;;;0.10;0.10;;;23.50;80.70;;;;;;5156014;27;20196;-77
2022/06/13 11:47:01;;;;;;;0.10;0.10;;;22.70;83.20;;;;;;5122805;27;20213;-75
2022/06/13 11:49:33;;;;;;;0.10;0.10;;;22.00;84.70;;;;;;5145348;27;20736;-75
2022/06/13 11:53:35;;;;;;;0.20;0.20;;;21.30;87.10;;;;;;5155933;27;20663;-76
2022/06/13 11:55:01;;;;;;;0.20;0.20;;;21.90;86.60;;;;;;5155702;27;20551;-76
2022/06/13 11:57:37;;;;;;;0.20;0.20;;;22.20;83.80;;;;;;5155693;27;20192;-75
2022/06/13 12:00:06;;;;;;;0.20;0.20;;;22.00;88.70;;;;;;5137454;27;20250;-75
2022/06/13 12:02:50;;;;;;;0.20;0.20;;;21.60;88.20;;;;;;5155439;27;20193;-75
2022/06/13 12:05:22;;;;;;;0.20;0.20;;;21.30;89.10;;;;;;5155669;27;20205;-75
2022/06/13 12:08:02;;;;;;;0.60;0.38;;;21.00;89.20;;;;;;5155673;27;20669;-75
2022/06/13 12:10:41;;;;;;;0.20;0.20;;;20.90;91.50;;;;;;5136937;27;20556;-75
2022/06/13 12:13:16;;;;;;;0.20;0.20;;;21.00;91.70;;;;;;5155792;27;20189;-75
2022/06/13 12:16:04;;;;;;;0.20;0.20;;;21.20;91.10;;;;;;5137118;27;20608;-75
2022/06/13 12:18:37;;;;;;;0.20;0.20;;;21.10;91.50;;;;;;5155411;27;20699;-75
2022/06/13 12:21:14;;;;;;;0.20;0.20;;;21.10;92.30;;;;;;5137238;27;20202;-76
2022/06/13 12:23:47;;;;;;;0.10;0.10;;;21.70;92.00;;;;;;5155222;27;20201;-75
2022/06/13 12:26:17;;;;;;;0.20;0.20;;;23.00;91.50;;;;;;5136840;27;20720;-75
2022/06/13 12:28:58;;;;;;;0.13;0.13;;;24.00;81.30;;;;;;5155288;27;20680;-76
2022/06/13 12:31:36;;;;;;;0.20;0.20;;;24.70;80.20;;;;;;5155200;27;20656;-77
2022/06/13 12:34:25;;;;;;;0.10;0.10;;;24.90;78.20;;;;;;5155504;27;20562;-75
2022/06/13 12:37:34;;;;;;;0.20;0.20;;;25.60;81.70;;;;;;5154159;27;20560;-76
2022/06/13 12:40:18;;;;;;;0.17;0.17;;;26.40;77.20;;;;;;5115393;27;20206;-76
2022/06/13 12:42:56;;;;;;;0.30;0.30;;;26.50;73.30;;;;;;5136270;27;20560;-76
2022/06/13 12:45:31;;;;;;;0.20;0.20;;;26.50;71.00;;;;;;5155135;27;20273;-75
2022/06/13 12:48:06;;;;;;;0.10;0.10;;;25.00;72.20;;;;;;5154926;27;20288;-75
2022/06/13 12:50:47;;;;;;;0.10;0.10;;;25.10;74.00;;;;;;5134625;27;20587;-74
2022/06/13 12:53:35;;;;;;;0.10;0.10;;;25.10;74.90;;;;;;5144435;27;20532;-75
2022/06/13 12:56:42;;;;;;;0.10;0.10;;;24.90;77.30;;;;;;5155158;27;20186;-75
2022/06/13 13:00:02;;;;;;;0.20;0.13;;;25.20;75.10;;;;;;5136024;27;20209;-75
2022/06/13 13:02:37;;;;;;;0.10;0.10;;;25.30;71.60;;;;;;5053116;28;20197;-75
2022/06/13 13:05:11;;;;;;;0.10;0.10;;;25.40;70.80;;;;;;5070203;28;20231;-73
2022/06/13 13:07:58;;;;;;;0.10;0.10;;;25.40;75.50;;;;;;5069816;28;20279;-75
2022/06/13 13:10:35;;;;;;;0.10;0.10;;;25.60;72.60;;;;;;5069732;28;20200;-74
2022/06/13 13:13:39;;;;;;;0.10;0.10;;;25.50;72.70;;;;;;5070157;28;20196;-76
2022/06/13 13:16:10;;;;;;;0.10;0.10;;;25.10;73.00;;;;;;5069480;28;20207;-75
2022/06/13 13:19:14;;;;;;;0.20;0.20;;;24.20;74.90;;;;;;5052901;28;20297;-74
2022/06/13 13:21:58;;;;;;;0.10;0.10;;;23.80;78.90;;;;;;5053004;28;20559;-74
2022/06/13 13:24:26;;;;;;;0.10;0.10;;;24.60;79.80;;;;;;5069475;28;20212;-75
2022/06/13 13:27:09;;;;;;;0.10;0.10;;;24.70;77.50;;;;;;5069832;28;20211;-74
2022/06/13 13:30:15;;;;;;;0.10;0.10;;;24.30;74.60;;;;;;5069372;28;20593;-74
2022/06/13 13:33:20;;;;;;;0.10;0.10;;;24.10;78.30;;;;;;5069591;28;20199;-75
2022/06/13 13:36:00;;;;;;;0.10;0.10;;;24.90;75.40;;;;;;5069893;27;20329;-74
2022/06/13 13:38:30;;;;;;;0.20;0.20;;;25.10;75.30;;;;;;5153550;27;20288;-74
2022/06/13 13:41:12;;;;;;;0.10;0.10;;;25.40;72.40;;;;;;5153724;27;20312;-74
2022/06/13 13:44:07;;;;;;;0.10;0.10;;;25.60;71.60;;;;;;5153670;27;20284;-74
2022/06/13 13:46:42;;;;;;;0.10;0.10;;;25.50;70.30;;;;;;5139710;27;20206;-74
2022/06/13 13:49:20;;;;;;;0.22;0.20;;;25.40;70.80;;;;;;5152938;27;20204;-75
2022/06/13 13:52:09;;;;;;;0.10;0.10;;;25.10;74.20;;;;;;5134891;27;20225;-73